Domov               UVHVVR             MKGP            O straneh              
ZDRAVSTVENO VARSTVO RASTLIN
  MREŽA AGROMET. POSTAJ
 ► PROGNOSTIČNA OBVESTILA
AGROMETEOROLOŠKI PODATKI -
ARSO
OBVLADOVANJE TVEGANJ ZARADI
NEUGODNIH VREMENSKIH RAZMER
  ► NARAVNE NESREČE
  ► SUŠA/MOČA
  ► NAMAKANJE
  ► ŽLED (gozdarstvo)
KARTOGRAFSKI PRIKAZI
SPLETNE POVEZAVE
PROJEKTI IN PUBLIKACIJE

AGROMETEOROLOŠKA MREŽA: VREMENSKE POSTAJE IN FENOLOŠKA OPAZOVANJA

Pregled podatkov za lokacijo Dutovlje, meteorološka postaja 38560

Pregled senzorjev na lokaciji

ID Ime Zadnja
vrednost
Datum
zadnje
spremembe
Tip
senzorja
4338 Omočenost lista (U) 0 U 19.7.2018 05:30 A730WET
2016 Padavine (mm) 0 mm 19.7.2018 05:30 Rain-O-Matic
2019 Relativna vlaga 2 m (% RH) 81,95 % RH 19.7.2018 05:30 50YA
2018 Temperatura 2 m (°C) 15,14 °C 19.7.2018 05:30 50YA

Pregled podatkov zadnjih 24 ur

Zap.
št.
Datum in čas Dutovlje
Omočenost
lista
Padavine Relativna
vlaga
2
m
Temperatura
2
m
1 19.7.2018 06:00
2 19.7.2018 05:30
3 19.7.2018 05:00
4 19.7.2018 04:30 0 0 82 15,1
5 19.7.2018 04:00 0 0 79,9 15,7
6 19.7.2018 03:30 0 0 78,6 15,9
7 19.7.2018 03:00 0 0 75,9 16,2
8 19.7.2018 02:30 0 0 74,6 16,3
9 19.7.2018 02:00 0 0 69,9 17,2
10 19.7.2018 01:30 0 0 66,3 18
11 19.7.2018 01:00 0 0 68,8 17,6
12 19.7.2018 00:30 0 0 66,8 17,9
13 19.7.2018 00:00 0 0 66,3 18,1
14 18.7.2018 23:30 0 0 67,2 18,4
15 18.7.2018 23:00 0 0 70,8 18,5
16 18.7.2018 22:30 0 0 72,7 18,5
17 18.7.2018 22:00 0 0 72,2 18,5
18 18.7.2018 21:30 0 0 73,3 18,7
19 18.7.2018 21:00 0 0 75,1 19
20 18.7.2018 20:30 0 0 70,4 20,1
21 18.7.2018 20:00 0 0 71,8 20,9
22 18.7.2018 19:30 0 0 62,4 22,7
23 18.7.2018 19:00 0 0 65,5 23,8
24 18.7.2018 18:30 0 0 52,1 24,7
25 18.7.2018 18:00 0 0 42,1 27,1
26 18.7.2018 17:30 0 0 41 27,6
27 18.7.2018 17:00 0 0 37,8 28,1
28 18.7.2018 16:30 0 0 38 28,6
29 18.7.2018 16:00 0 0 40,4 28,6
30 18.7.2018 15:30 0 0 40,3 28,9
31 18.7.2018 15:00 0 0 41,3 28,8
32 18.7.2018 14:30 0 0 45,2 28,9
33 18.7.2018 14:00 0 0 47,8 29,1
34 18.7.2018 13:30 0 0 48,3 28,8
35 18.7.2018 13:00 0 0 47,4 28,6
36 18.7.2018 12:30 0 0 45,5 28,7
37 18.7.2018 12:00 0 0 45,9 28,4
38 18.7.2018 11:30 0 0 47,3 28,2
39 18.7.2018 11:00 0 0 52,1 27,7
40 18.7.2018 10:30 0 0 59,2 27,3
41 18.7.2018 10:00 0 0 64,2 26,5
42 18.7.2018 09:30 0 0 70,1 25,7
43 18.7.2018 09:00 0 0 75,9 25
44 18.7.2018 08:30 0 0 78,8 23,9
45 18.7.2018 08:00 0 0 84 22,2
46 18.7.2018 07:30 2 0 88,2 20,6
47 18.7.2018 07:00 4 0 91,6 18,9
48 18.7.2018 06:30 8 0 94,6 17,1
© 2011 Ministrstvo za kmetijstvo, gozdarstvo in prehrano. Vse pravice pridržane.